Time;durP1;ratioP1;P1;durP2;ratioP2;P2;SDS_P1;SDS_P2;PMS_P1;PMS_P2;Temp;Humidity;BMP_temperature;BMP_pressure;BME280_temperature;BME280_humidity;BME280_pressure;Samples;Min_cycle;Max_cycle;Signal;HPM_P1;HPM_P2
2021/06/18 00:00:44;;;;;;;5.20;2.55;;;20.20;60.70;;;;;;5051357;28;20063;-80
2021/06/18 00:03:10;;;;;;;4.90;2.42;;;20.10;60.40;;;;;;5069281;28;20072;-79
2021/06/18 00:05:36;;;;;;;3.53;2.45;;;20.10;60.40;;;;;;5084866;28;20029;-81
2021/06/18 00:08:02;;;;;;;7.18;2.53;;;20.10;60.40;;;;;;5069313;28;20035;-79
2021/06/18 00:10:28;;;;;;;3.85;2.10;;;20.10;60.30;;;;;;5069436;28;20032;-79
2021/06/18 00:12:55;;;;;;;5.20;2.05;;;20.10;60.20;;;;;;5084349;28;20074;-80
2021/06/18 00:15:20;;;;;;;3.70;2.15;;;20.00;59.90;;;;;;5068997;28;20124;-79
2021/06/18 00:17:46;;;;;;;3.95;1.90;;;20.00;59.80;;;;;;5085408;28;20116;-78
2021/06/18 00:20:13;;;;;;;3.88;1.90;;;20.00;59.70;;;;;;5067606;28;20068;-78
2021/06/18 00:22:40;;;;;;;1.60;1.38;;;20.00;59.70;;;;;;5084266;28;20032;-80
2021/06/18 00:25:07;;;;;;;2.70;1.63;;;19.90;59.40;;;;;;5051125;28;20083;-80
2021/06/18 00:27:33;;;;;;;4.38;1.63;;;19.90;59.20;;;;;;5084538;28;20468;-80
2021/06/18 00:30:00;;;;;;;5.95;1.70;;;19.90;59.10;;;;;;5050838;28;20523;-82
2021/06/18 00:32:40;;;;;;;3.25;1.70;;;19.90;59.00;;;;;;5051886;28;20028;-82
2021/06/18 00:35:11;;;;;;;6.15;1.67;;;19.90;58.90;;;;;;5101649;28;20487;-82
2021/06/18 00:37:38;;;;;;;3.42;1.55;;;19.90;58.80;;;;;;5084496;28;20067;-82
2021/06/18 00:40:06;;;;;;;2.13;1.50;;;19.80;58.50;;;;;;5087593;28;20428;-84
2021/06/18 00:42:34;;;;;;;1.92;1.20;;;19.80;58.50;;;;;;5087947;28;20028;-84
2021/06/18 00:45:03;;;;;;;2.38;1.35;;;19.80;58.40;;;;;;5087434;28;20524;-81
2021/06/18 00:47:32;;;;;;;7.78;1.30;;;19.70;58.20;;;;;;5087072;28;20521;-80
2021/06/18 00:49:58;;;;;;;3.95;1.67;;;19.70;58.00;;;;;;5087129;28;20035;-81
2021/06/18 00:52:24;;;;;;;2.65;1.45;;;19.70;58.00;;;;;;5087458;28;20035;-82
2021/06/18 00:54:52;;;;;;;2.33;1.30;;;19.70;58.00;;;;;;5070611;28;20074;-82
2021/06/18 00:57:20;;;;;;;2.45;1.25;;;19.60;57.70;;;;;;5087782;28;20036;-82
2021/06/18 00:59:46;;;;;;;2.83;1.48;;;19.60;57.60;;;;;;5070630;28;20029;-82
2021/06/18 01:02:13;;;;;;;4.57;1.40;;;19.60;57.60;;;;;;5087246;28;20050;-80
2021/06/18 01:04:41;;;;;;;2.30;1.42;;;19.50;57.30;;;;;;5067652;28;20437;-83
2021/06/18 01:07:18;;;;;;;1.35;1.08;;;19.50;57.20;;;;;;5085560;28;20135;-83
2021/06/18 01:10:06;;;;;;;3.17;1.38;;;19.50;57.10;;;;;;5086608;28;20024;-82
2021/06/18 01:12:40;;;;;;;2.78;1.08;;;19.50;57.00;;;;;;5069995;28;20162;-80
2021/06/18 01:15:36;;;;;;;1.50;1.20;;;19.50;57.00;;;;;;5087190;28;20387;-82
2021/06/18 01:18:07;;;;;;;2.80;1.08;;;19.40;57.00;;;;;;5086601;28;20047;-80
2021/06/18 01:20:59;;;;;;;3.08;1.08;;;19.40;56.70;;;;;;5066809;28;20127;-82
2021/06/18 01:23:56;;;;;;;1.40;1.00;;;19.40;56.60;;;;;;5074755;28;20039;-82
2021/06/18 01:26:43;;;;;;;1.73;1.20;;;19.40;56.60;;;;;;5066096;28;20036;-82
2021/06/18 01:29:11;;;;;;;3.15;1.30;;;19.30;56.40;;;;;;5079492;28;20066;-82
2021/06/18 01:31:41;;;;;;;1.40;0.90;;;19.30;56.30;;;;;;5083223;28;20041;-79
2021/06/18 01:34:35;;;;;;;1.77;1.00;;;19.30;56.30;;;;;;5079298;28;20044;-81
2021/06/18 01:37:29;;;;;;;1.75;1.00;;;19.20;56.10;;;;;;5087692;28;20510;-80
2021/06/18 01:39:58;;;;;;;2.72;1.00;;;19.30;56.30;;;;;;5052700;28;21118;-82
2021/06/18 01:42:26;;;;;;;1.15;0.85;;;19.30;56.20;;;;;;5051235;28;20028;-82
2021/06/18 01:44:53;;;;;;;1.90;1.15;;;19.20;56.10;;;;;;5067955;28;20056;-80
2021/06/18 01:47:20;;;;;;;1.85;1.10;;;19.20;56.00;;;;;;5087269;28;20070;-82
2021/06/18 01:49:47;;;;;;;1.63;0.90;;;19.20;56.00;;;;;;5072327;28;20574;-81
2021/06/18 01:52:15;;;;;;;1.48;1.00;;;19.20;55.90;;;;;;5076853;28;20131;-81
2021/06/18 01:54:44;;;;;;;1.90;1.10;;;19.20;55.90;;;;;;5077399;28;20028;-83
2021/06/18 01:57:16;;;;;;;2.92;1.27;;;19.20;55.90;;;;;;5091744;28;20040;-82
2021/06/18 01:59:46;;;;;;;2.95;1.17;;;19.10;55.70;;;;;;5077023;28;20128;-83
2021/06/18 02:02:14;;;;;;;2.45;1.33;;;19.10;55.70;;;;;;5077119;28;20096;-83
2021/06/18 02:04:41;;;;;;;1.02;0.93;;;19.10;55.70;;;;;;5075006;28;20075;-82
2021/06/18 02:07:10;;;;;;;1.50;1.20;;;19.10;55.70;;;;;;5076932;28;20127;-83
2021/06/18 02:09:39;;;;;;;2.53;0.98;;;19.10;55.60;;;;;;5077046;28;20039;-82
2021/06/18 02:12:07;;;;;;;4.20;1.35;;;19.10;55.60;;;;;;5077297;28;20092;-82
2021/06/18 02:14:38;;;;;;;1.55;1.15;;;19.00;55.40;;;;;;5076648;28;20166;-82
2021/06/18 02:17:05;;;;;;;1.65;1.05;;;19.00;55.50;;;;;;5094419;28;20032;-82
2021/06/18 02:19:35;;;;;;;2.67;1.10;;;19.00;55.40;;;;;;5080149;28;20031;-82
2021/06/18 02:22:08;;;;;;;2.40;1.10;;;19.00;55.40;;;;;;5078046;28;20028;-82
2021/06/18 02:24:37;;;;;;;;;;;19.00;55.40;;;;;;5077676;28;20498;-84
2021/06/18 02:27:06;;;;;;;2.08;1.25;;;19.00;55.40;;;;;;5093172;28;19912;-83
2021/06/18 02:29:32;;;;;;;1.42;1.05;;;18.90;55.20;;;;;;5079915;28;20387;-82
2021/06/18 02:32:02;;;;;;;2.38;1.05;;;18.90;55.30;;;;;;5079937;28;20132;-81
2021/06/18 02:34:29;;;;;;;2.15;1.00;;;18.90;55.40;;;;;;5059820;28;20029;-81
2021/06/18 02:36:55;;;;;;;3.13;1.40;;;18.80;55.20;;;;;;5075262;28;20040;-81
2021/06/18 02:39:21;;;;;;;3.38;1.20;;;18.80;55.20;;;;;;5078044;28;20054;-79
2021/06/18 02:41:46;;;;;;;1.75;1.30;;;18.80;55.30;;;;;;5075050;28;20021;-79
2021/06/18 02:44:13;;;;;;;2.47;1.33;;;18.70;55.20;;;;;;5075158;28;20491;-79
2021/06/18 02:46:44;;;;;;;3.30;1.52;;;18.70;55.30;;;;;;5077018;28;20052;-82
2021/06/18 02:49:13;;;;;;;2.10;1.33;;;18.70;55.40;;;;;;5075541;28;20036;-81
2021/06/18 02:51:41;;;;;;;2.35;1.25;;;18.70;55.60;;;;;;5079919;28;20045;-82
2021/06/18 02:54:16;;;;;;;2.30;1.15;;;18.60;55.40;;;;;;5078135;28;20160;-80
2021/06/18 02:56:48;;;;;;;3.53;1.40;;;18.60;55.60;;;;;;5059824;28;20028;-78
2021/06/18 02:59:31;;;;;;;2.35;1.40;;;18.60;55.60;;;;;;5075292;28;20699;-78
2021/06/18 03:02:01;;;;;;;4.72;1.33;;;18.50;55.60;;;;;;5084330;28;20037;-83
2021/06/18 03:04:31;;;;;;;2.00;1.25;;;18.50;55.70;;;;;;5078011;28;20039;-81
2021/06/18 03:07:02;;;;;;;1.98;1.20;;;18.40;55.50;;;;;;5074769;28;20124;-79
2021/06/18 03:09:38;;;;;;;3.50;1.55;;;18.40;55.60;;;;;;5096823;28;20052;-82
2021/06/18 03:12:09;;;;;;;2.00;1.48;;;18.40;55.80;;;;;;5075019;28;20041;-83
2021/06/18 03:14:39;;;;;;;1.98;1.65;;;18.30;55.60;;;;;;5080931;28;20183;-82
2021/06/18 03:17:09;;;;;;;1.65;1.17;;;18.30;55.70;;;;;;5075735;28;20124;-79
2021/06/18 03:19:49;;;;;;;3.78;1.80;;;18.30;55.80;;;;;;5074523;28;20426;-81
2021/06/18 03:22:16;;;;;;;2.08;1.52;;;18.30;55.90;;;;;;5057210;28;20036;-79
2021/06/18 03:24:58;;;;;;;3.72;1.55;;;18.20;55.70;;;;;;5074290;28;20048;-80
2021/06/18 03:27:24;;;;;;;2.60;1.75;;;18.20;55.80;;;;;;5057735;28;20028;-82
2021/06/18 03:29:53;;;;;;;1.33;1.17;;;18.20;55.90;;;;;;5071820;28;20036;-83
2021/06/18 03:32:20;;;;;;;2.00;1.38;;;18.20;56.00;;;;;;5075651;28;20056;-80
2021/06/18 03:34:48;;;;;;;4.32;1.73;;;18.10;55.90;;;;;;5072628;28;20036;-80
2021/06/18 03:37:17;;;;;;;3.70;1.70;;;18.10;56.00;;;;;;5089801;28;20028;-80
2021/06/18 03:39:44;;;;;;;2.53;1.65;;;18.10;56.00;;;;;;5090462;28;20483;-82
2021/06/18 03:42:11;;;;;;;3.45;2.20;;;18.10;56.10;;;;;;5073640;28;20050;-79
2021/06/18 03:44:37;;;;;;;3.67;1.90;;;18.00;56.00;;;;;;5073294;28;20498;-79
2021/06/18 03:47:05;;;;;;;1.83;1.50;;;18.00;56.00;;;;;;5089596;28;20048;-81
2021/06/18 03:49:32;;;;;;;2.53;1.67;;;18.00;56.10;;;;;;5073869;28;20159;-79
2021/06/18 03:52:03;;;;;;;4.05;1.58;;;18.00;56.20;;;;;;5073286;28;20028;-80
2021/06/18 03:54:32;;;;;;;6.63;2.05;;;18.00;56.40;;;;;;5056659;28;20128;-82
2021/06/18 03:57:02;;;;;;;2.55;1.90;;;18.00;56.40;;;;;;5072608;28;20173;-80
2021/06/18 03:59:31;;;;;;;4.50;2.10;;;17.90;56.20;;;;;;5071872;28;20563;-82
2021/06/18 04:01:59;;;;;;;3.40;1.85;;;17.90;56.30;;;;;;5072913;28;20068;-80
2021/06/18 04:04:30;;;;;;;3.08;1.70;;;17.90;56.40;;;;;;5072652;28;20024;-81
2021/06/18 04:06:58;;;;;;;4.88;2.25;;;17.90;56.40;;;;;;5073344;28;20530;-82
2021/06/18 04:09:24;;;;;;;3.20;1.85;;;17.90;56.50;;;;;;5072904;28;20024;-80
2021/06/18 04:11:53;;;;;;;2.35;1.73;;;17.80;56.40;;;;;;5072317;28;20180;-82
2021/06/18 04:14:21;;;;;;;4.38;2.00;;;17.80;56.40;;;;;;5072749;28;20028;-82
2021/06/18 04:16:47;;;;;;;3.10;1.80;;;17.80;56.50;;;;;;5073749;28;20024;-82
2021/06/18 04:19:13;;;;;;;3.65;1.80;;;17.80;56.60;;;;;;5073836;28;20051;-82
2021/06/18 04:21:42;;;;;;;3.45;1.98;;;17.80;56.70;;;;;;5073745;28;20037;-83
2021/06/18 04:24:11;;;;;;;3.80;1.90;;;17.80;56.80;;;;;;5071524;28;20111;-82
2021/06/18 04:26:37;;;;;;;2.63;2.00;;;17.80;56.90;;;;;;5089008;28;20059;-81
2021/06/18 04:29:03;;;;;;;2.80;2.25;;;17.80;56.90;;;;;;5073735;28;20025;-82
2021/06/18 04:31:29;;;;;;;3.85;1.88;;;17.80;56.90;;;;;;5073650;28;20036;-81
2021/06/18 04:33:55;;;;;;;4.13;1.90;;;17.70;56.80;;;;;;5073261;28;20555;-82
2021/06/18 04:36:21;;;;;;;4.28;1.90;;;17.70;56.80;;;;;;5073492;28;20064;-82
2021/06/18 04:38:47;;;;;;;3.78;1.98;;;17.70;56.90;;;;;;5073602;28;20628;-80
2021/06/18 04:41:14;;;;;;;6.03;1.98;;;17.70;56.90;;;;;;5055454;28;20525;-82
2021/06/18 04:43:40;;;;;;;5.10;2.08;;;17.70;57.00;;;;;;5073313;28;20020;-82
2021/06/18 04:46:07;;;;;;;7.60;2.33;;;17.70;57.10;;;;;;5073607;28;20097;-78
2021/06/18 04:48:35;;;;;;;4.55;2.33;;;17.70;57.10;;;;;;5081303;28;20040;-80
2021/06/18 04:51:05;;;;;;;4.22;2.42;;;17.70;57.10;;;;;;5105716;28;20475;-81
2021/06/18 04:53:30;;;;;;;3.75;1.90;;;17.70;57.10;;;;;;5080995;28;20036;-82
2021/06/18 04:56:01;;;;;;;3.10;1.98;;;17.70;57.10;;;;;;5068289;28;20033;-82
2021/06/18 04:58:29;;;;;;;2.50;1.75;;;17.60;57.00;;;;;;5079702;28;20038;-82
2021/06/18 05:00:55;;;;;;;3.33;1.83;;;17.60;57.00;;;;;;5083495;28;20047;-80
2021/06/18 05:03:22;;;;;;;5.57;2.10;;;17.60;57.00;;;;;;5068999;28;20024;-81
2021/06/18 05:05:48;;;;;;;4.50;2.05;;;17.60;57.00;;;;;;5059812;28;20067;-81
2021/06/18 05:08:14;;;;;;;3.97;1.83;;;17.60;57.00;;;;;;5091277;28;20241;-81
2021/06/18 05:10:41;;;;;;;5.53;1.92;;;17.60;57.10;;;;;;5050153;28;20055;-83
2021/06/18 05:13:10;;;;;;;4.75;2.47;;;17.60;57.00;;;;;;5066404;28;20029;-80
2021/06/18 05:15:36;;;;;;;3.13;2.00;;;17.60;57.00;;;;;;5050794;28;20035;-81
2021/06/18 05:18:02;;;;;;;3.63;2.00;;;17.60;57.00;;;;;;5070064;28;20035;-82
2021/06/18 05:20:28;;;;;;;4.82;1.70;;;17.60;57.00;;;;;;5086538;28;20036;-81
2021/06/18 05:22:55;;;;;;;4.40;1.90;;;17.70;57.30;;;;;;5086477;28;20059;-82
2021/06/18 05:25:21;;;;;;;4.80;1.95;;;17.70;57.20;;;;;;5061128;28;20025;-81
2021/06/18 05:27:49;;;;;;;3.95;2.17;;;17.70;57.20;;;;;;5067510;28;20024;-82
2021/06/18 05:30:16;;;;;;;2.70;1.92;;;17.70;57.20;;;;;;5050070;28;20454;-78
2021/06/18 05:32:43;;;;;;;5.28;2.05;;;17.70;57.30;;;;;;5083277;28;20028;-80
2021/06/18 05:35:10;;;;;;;9.20;2.65;;;17.70;57.10;;;;;;5066143;28;20028;-77
2021/06/18 05:37:36;;;;;;;7.10;2.58;;;17.80;57.30;;;;;;5051828;28;20327;-79
2021/06/18 05:40:03;;;;;;;7.18;2.90;;;17.70;56.90;;;;;;5069532;28;20038;-78
2021/06/18 05:42:29;;;;;;;3.33;1.85;;;17.80;56.90;;;;;;5079850;28;20592;-79
2021/06/18 05:44:55;;;;;;;6.55;2.45;;;17.80;57.20;;;;;;5068082;28;20123;-79
2021/06/18 05:47:21;;;;;;;3.28;2.00;;;17.80;57.80;;;;;;5085385;28;20056;-79
2021/06/18 05:49:47;;;;;;;5.25;2.00;;;17.90;58.50;;;;;;5049199;28;20412;-78
2021/06/18 05:52:13;;;;;;;5.85;2.15;;;18.00;59.20;;;;;;5084686;28;20055;-79
2021/06/18 05:54:39;;;;;;;6.65;2.10;;;18.10;59.80;;;;;;5055608;28;20063;-78
2021/06/18 05:57:06;;;;;;;4.40;2.05;;;18.20;60.30;;;;;;5077876;28;20059;-79
2021/06/18 05:59:32;;;;;;;2.92;1.98;;;18.30;60.70;;;;;;5068659;28;20059;-78
2021/06/18 06:01:58;;;;;;;3.10;1.88;;;18.40;61.10;;;;;;5085546;28;20222;-79
2021/06/18 06:04:23;;;;;;;2.95;1.92;;;18.40;61.20;;;;;;5069145;28;20028;-78
2021/06/18 06:06:49;;;;;;;4.00;1.95;;;18.50;62.00;;;;;;5102425;28;20365;-80
2021/06/18 06:09:15;;;;;;;3.45;1.75;;;18.60;61.80;;;;;;5085857;28;20281;-79
2021/06/18 06:11:42;;;;;;;5.20;2.45;;;18.60;61.90;;;;;;5085631;28;20422;-79
2021/06/18 06:14:08;;;;;;;5.47;2.13;;;18.60;62.00;;;;;;5069141;28;20035;-80
2021/06/18 06:16:35;;;;;;;4.75;2.25;;;18.60;62.10;;;;;;5081624;28;20040;-78
2021/06/18 06:19:03;;;;;;;3.60;2.00;;;18.70;62.50;;;;;;5064005;28;20410;-76
2021/06/18 06:21:29;;;;;;;3.40;1.77;;;18.70;63.20;;;;;;5064119;28;20540;-77
2021/06/18 06:23:55;;;;;;;3.25;1.85;;;18.70;62.60;;;;;;5053193;28;20115;-76
2021/06/18 06:26:22;;;;;;;8.68;2.28;;;18.80;62.80;;;;;;5082429;28;20070;-77
2021/06/18 06:28:48;;;;;;;3.88;2.10;;;18.80;62.60;;;;;;5082821;28;20085;-76
2021/06/18 06:31:14;;;;;;;5.85;2.42;;;18.80;62.60;;;;;;5084627;28;20503;-76
2021/06/18 06:33:40;;;;;;;4.35;2.00;;;18.80;62.70;;;;;;5084135;28;20045;-76
2021/06/18 06:36:06;;;;;;;5.43;2.10;;;18.90;63.00;;;;;;5084567;28;20156;-76
2021/06/18 06:38:32;;;;;;;9.55;2.40;;;18.90;63.00;;;;;;5083954;28;20032;-76
2021/06/18 06:40:58;;;;;;;4.75;2.42;;;18.90;63.00;;;;;;5086152;28;20426;-76
2021/06/18 06:43:24;;;;;;;3.38;1.95;;;18.90;63.00;;;;;;5086406;28;20081;-77
2021/06/18 06:45:50;;;;;;;5.60;2.30;;;19.00;63.20;;;;;;5087115;28;20093;-77
2021/06/18 06:48:17;;;;;;;5.95;2.70;;;19.00;63.20;;;;;;5093494;28;20053;-76
2021/06/18 06:50:43;;;;;;;5.22;2.40;;;19.00;63.20;;;;;;5066968;28;20036;-76
2021/06/18 06:53:09;;;;;;;5.82;2.63;;;19.00;63.20;;;;;;5057584;28;20387;-76
2021/06/18 06:55:36;;;;;;;4.85;2.40;;;19.00;63.10;;;;;;5086890;28;20032;-76
2021/06/18 06:58:04;;;;;;;5.55;2.22;;;19.00;63.10;;;;;;5085184;28;20042;-77
2021/06/18 07:00:31;;;;;;;6.85;2.60;;;19.00;63.00;;;;;;5086881;28;20032;-77
2021/06/18 07:02:57;;;;;;;5.13;2.25;;;19.10;63.10;;;;;;5078667;28;20033;-76
2021/06/18 07:05:23;;;;;;;3.97;2.35;;;19.10;63.10;;;;;;5066353;28;20035;-76
2021/06/18 07:07:49;;;;;;;4.80;2.58;;;19.10;63.10;;;;;;5085971;28;20028;-77
2021/06/18 07:10:15;;;;;;;5.93;2.95;;;19.10;63.00;;;;;;5077662;28;20046;-77
2021/06/18 07:12:41;;;;;;;5.13;2.22;;;19.20;63.10;;;;;;5065096;28;20024;-77
2021/06/18 07:15:08;;;;;;;4.03;2.20;;;19.20;63.00;;;;;;5062443;28;20835;-77
2021/06/18 07:17:34;;;;;;;6.75;2.15;;;19.30;63.20;;;;;;5063309;28;20028;-77
2021/06/18 07:20:03;;;;;;;6.43;2.40;;;19.30;63.10;;;;;;5066756;28;20030;-78
2021/06/18 07:22:30;;;;;;;10.00;2.47;;;19.40;63.10;;;;;;5068206;28;21414;-77
2021/06/18 07:24:58;;;;;;;4.80;1.95;;;19.40;63.00;;;;;;5046657;28;20055;-77
2021/06/18 07:27:24;;;;;;;5.97;1.98;;;19.50;63.00;;;;;;5066318;28;20089;-76
2021/06/18 07:29:53;;;;;;;11.45;2.67;;;19.50;62.90;;;;;;5067219;28;20110;-77
2021/06/18 07:32:19;;;;;;;3.92;2.15;;;19.60;63.00;;;;;;5067788;28;20028;-77
2021/06/18 07:34:47;;;;;;;4.00;2.28;;;19.70;63.00;;;;;;5037382;28;20039;-77
2021/06/18 07:37:13;;;;;;;8.45;2.60;;;19.70;62.90;;;;;;5066677;28;20063;-78
2021/06/18 07:39:39;;;;;;;6.97;2.38;;;19.80;62.90;;;;;;5067241;28;20028;-78
2021/06/18 07:42:05;;;;;;;4.43;1.98;;;19.80;62.70;;;;;;5067219;28;20086;-77
2021/06/18 07:44:35;;;;;;;7.07;2.40;;;19.90;62.70;;;;;;5076065;28;20024;-75
2021/06/18 07:47:01;;;;;;;4.20;1.80;;;19.90;62.50;;;;;;5083662;28;20050;-77
2021/06/18 07:49:26;;;;;;;4.00;2.08;;;20.00;62.50;;;;;;5085286;28;20115;-76
2021/06/18 07:51:53;;;;;;;3.15;1.77;;;20.10;62.50;;;;;;5085938;28;20063;-76
2021/06/18 07:54:20;;;;;;;3.17;2.10;;;20.10;62.50;;;;;;5083672;28;20032;-77
2021/06/18 07:56:47;;;;;;;4.90;2.20;;;20.20;62.40;;;;;;5086462;28;20464;-78
2021/06/18 07:59:13;;;;;;;6.35;1.85;;;20.30;62.40;;;;;;5085063;28;20024;-80
2021/06/18 08:01:39;;;;;;;6.05;2.33;;;20.40;62.40;;;;;;5088897;28;20121;-79
2021/06/18 08:04:05;;;;;;;7.78;2.40;;;20.40;62.10;;;;;;5072672;28;20021;-77
2021/06/18 08:06:31;;;;;;;4.38;2.33;;;20.50;61.90;;;;;;5069505;28;20561;-79
2021/06/18 08:08:57;;;;;;;6.50;2.40;;;20.60;61.70;;;;;;5085160;28;20549;-79
2021/06/18 08:11:22;;;;;;;4.88;2.28;;;20.70;61.60;;;;;;5067768;28;20040;-78
2021/06/18 08:13:48;;;;;;;7.40;2.47;;;20.70;61.20;;;;;;5084644;28;20021;-79
2021/06/18 08:16:14;;;;;;;8.45;2.15;;;20.90;61.20;;;;;;5069306;28;20032;-78
2021/06/18 08:18:40;;;;;;;3.85;1.85;;;21.00;61.00;;;;;;5084896;28;20286;-79
2021/06/18 08:21:09;;;;;;;5.28;2.30;;;21.00;60.70;;;;;;5051136;28;20044;-80
2021/06/18 08:23:36;;;;;;;7.22;2.22;;;21.20;60.80;;;;;;5066291;28;20433;-79
2021/06/18 08:26:02;;;;;;;6.38;1.95;;;21.30;60.60;;;;;;5050313;28;20028;-79
2021/06/18 08:28:28;;;;;;;6.53;2.50;;;21.40;60.40;;;;;;5069402;28;20480;-78
2021/06/18 08:30:54;;;;;;;5.57;2.15;;;21.50;60.20;;;;;;5089530;28;20050;-78
2021/06/18 08:33:20;;;;;;;4.40;1.85;;;21.70;60.20;;;;;;5076574;28;20052;-83
2021/06/18 08:35:47;;;;;;;5.78;2.35;;;21.80;60.10;;;;;;5054986;28;20151;-81
2021/06/18 08:38:39;;;;;;;3.72;1.90;;;22.00;60.10;;;;;;5070253;28;20411;-85
2021/06/18 08:41:06;;;;;;;4.82;2.25;;;22.10;59.90;;;;;;5069501;28;21614;-84
2021/06/18 08:43:32;;;;;;;4.55;2.00;;;22.30;59.80;;;;;;5065920;28;20502;-79
2021/06/18 08:46:02;;;;;;;3.80;1.98;;;22.40;59.60;;;;;;5069987;28;20027;-83
2021/06/18 08:48:33;;;;;;;6.45;2.20;;;22.50;59.40;;;;;;5070328;28;20048;-81
2021/06/18 08:51:01;;;;;;;3.60;2.00;;;22.50;59.10;;;;;;5069926;28;20028;-81
2021/06/18 08:53:29;;;;;;;5.28;2.42;;;22.60;59.10;;;;;;5068896;28;20030;-82
2021/06/18 08:55:55;;;;;;;3.47;2.10;;;22.70;59.10;;;;;;5069992;28;21462;-80
2021/06/18 08:58:22;;;;;;;5.25;2.35;;;22.70;59.00;;;;;;5068958;28;20070;-82
2021/06/18 09:00:48;;;;;;;6.40;2.70;;;22.80;58.80;;;;;;5065543;28;20067;-83
2021/06/18 09:03:41;;;;;;;6.88;1.98;;;22.80;58.70;;;;;;5051509;28;20036;-84
2021/06/18 09:06:42;;;;;;;5.70;2.08;;;22.90;58.80;;;;;;5070433;28;20069;-83
2021/06/18 09:09:18;;;;;;;6.32;2.45;;;22.90;59.20;;;;;;5068017;28;20032;-82
2021/06/18 09:11:58;;;;;;;5.90;2.03;;;23.00;58.60;;;;;;5079810;28;21043;-83
2021/06/18 09:14:36;;;;;;;4.25;2.15;;;23.10;58.60;;;;;;5069582;28;20040;-81
2021/06/18 09:17:09;;;;;;;5.43;2.85;;;23.20;58.60;;;;;;5069859;28;20086;-81
2021/06/18 09:19:58;;;;;;;6.47;2.72;;;23.20;58.40;;;;;;5067535;28;20032;-82
2021/06/18 09:22:36;;;;;;;4.82;2.28;;;23.40;58.40;;;;;;5069841;28;20483;-82
2021/06/18 09:25:10;;;;;;;5.68;2.75;;;23.50;58.40;;;;;;5067539;28;20067;-85
2021/06/18 09:27:42;;;;;;;6.40;2.30;;;23.60;58.10;;;;;;5069241;28;20054;-80
2021/06/18 09:30:21;;;;;;;5.80;2.40;;;23.70;58.00;;;;;;5071531;28;20028;-85
2021/06/18 09:33:01;;;;;;;5.50;2.83;;;23.80;57.90;;;;;;5086518;28;20121;-82
2021/06/18 09:35:28;;;;;;;5.57;2.50;;;24.00;58.10;;;;;;5087121;28;20032;-83
2021/06/18 09:37:56;;;;;;;6.75;2.67;;;24.00;57.80;;;;;;5098730;28;20617;-85
2021/06/18 09:40:23;;;;;;;8.25;2.58;;;24.10;57.70;;;;;;5068323;28;20031;-84
2021/06/18 09:43:01;;;;;;;6.68;3.15;;;24.20;57.70;;;;;;5084073;28;21313;-85
2021/06/18 09:45:30;;;;;;;5.63;2.47;;;24.30;57.50;;;;;;5064036;28;20031;-89
2021/06/18 09:48:14;;;;;;;4.95;2.63;;;24.40;57.50;;;;;;5067220;28;20100;-84
2021/06/18 09:50:46;;;;;;;8.15;2.90;;;24.40;57.20;;;;;;5050952;28;20032;-85
2021/06/18 09:53:16;;;;;;;7.10;2.70;;;24.40;57.00;;;;;;5066533;28;20068;-85
2021/06/18 09:55:46;;;;;;;5.90;2.90;;;24.40;56.90;;;;;;5063883;28;20032;-84
2021/06/18 09:58:13;;;;;;;6.18;2.95;;;24.40;57.10;;;;;;5063207;28;20020;-83
2021/06/18 10:00:39;;;;;;;4.75;2.97;;;24.40;56.80;;;;;;5049177;28;20040;-82
2021/06/18 10:03:10;;;;;;;5.35;3.08;;;24.30;56.80;;;;;;5066719;28;20035;-81
2021/06/18 10:05:37;;;;;;;4.53;2.70;;;24.30;56.70;;;;;;5102552;28;20031;-81
2021/06/18 10:08:06;;;;;;;6.10;2.88;;;24.30;56.50;;;;;;5084873;28;20028;-82
2021/06/18 10:10:35;;;;;;;7.22;2.75;;;24.30;56.50;;;;;;5068140;28;20445;-82
2021/06/18 10:13:02;;;;;;;5.95;3.30;;;24.40;56.40;;;;;;5085450;28;20036;-81
2021/06/18 10:15:31;;;;;;;6.47;3.22;;;24.50;56.30;;;;;;5069304;28;20479;-79
2021/06/18 10:17:58;;;;;;;8.57;3.22;;;24.70;56.40;;;;;;5085847;28;20100;-82
2021/06/18 10:20:28;;;;;;;8.80;3.10;;;24.80;56.40;;;;;;5091116;28;20035;-80
2021/06/18 10:23:04;;;;;;;4.95;3.13;;;24.80;56.20;;;;;;5079426;28;20080;-81
2021/06/18 10:25:56;;;;;;;4.63;2.75;;;24.90;56.40;;;;;;5078119;28;20023;-81
2021/06/18 10:28:32;;;;;;;4.93;2.83;;;25.00;56.10;;;;;;5067409;28;20034;-82
2021/06/18 10:31:00;;;;;;;5.30;2.72;;;25.10;56.00;;;;;;5066280;28;20040;-81
2021/06/18 10:33:29;;;;;;;5.85;3.47;;;25.10;55.80;;;;;;5074373;28;20035;-81
2021/06/18 10:36:06;;;;;;;7.07;2.88;;;25.10;55.90;;;;;;5071519;28;20491;-81
2021/06/18 10:38:34;;;;;;;5.50;3.00;;;25.10;55.70;;;;;;5051561;28;20123;-81
2021/06/18 10:41:23;;;;;;;3.15;2.40;;;25.10;55.50;;;;;;5063623;28;20028;-84
2021/06/18 10:43:57;;;;;;;4.20;2.58;;;25.00;55.30;;;;;;5050640;28;20079;-83
2021/06/18 10:46:30;;;;;;;7.05;2.97;;;25.00;55.70;;;;;;5085168;28;20319;-84
2021/06/18 10:48:58;;;;;;;4.28;2.45;;;24.90;55.50;;;;;;5055240;28;20047;-84
2021/06/18 10:51:27;;;;;;;4.15;2.60;;;24.90;55.40;;;;;;5064282;28;20037;-81
2021/06/18 10:54:04;;;;;;;5.70;2.72;;;24.80;55.20;;;;;;5078377;28;20106;-84
2021/06/18 10:56:46;;;;;;;8.80;3.35;;;24.80;55.10;;;;;;5085759;28;20113;-83
2021/06/18 10:59:19;;;;;;;9.15;2.67;;;24.70;55.20;;;;;;5068642;28;20031;-83
2021/06/18 11:01:45;;;;;;;5.60;2.72;;;24.70;55.70;;;;;;5069010;28;20426;-84
2021/06/18 11:04:13;;;;;;;7.95;3.25;;;24.60;55.40;;;;;;5086178;28;20028;-83
2021/06/18 11:06:48;;;;;;;4.88;2.22;;;24.60;55.70;;;;;;5087572;28;20322;-85
2021/06/18 11:10:09;;;;;;;4.40;2.53;;;24.50;55.20;;;;;;5085554;28;20221;-83
2021/06/18 11:12:40;;;;;;;5.78;2.38;;;24.50;55.50;;;;;;5023654;28;20409;-82
2021/06/18 11:15:27;;;;;;;4.43;2.22;;;24.50;55.20;;;;;;5007666;28;20488;-84
2021/06/18 11:18:19;;;;;;;3.55;2.13;;;24.50;55.20;;;;;;5065992;28;20040;-84
2021/06/18 11:20:54;;;;;;;3.88;1.98;;;24.50;55.30;;;;;;5068578;28;20058;-84
2021/06/18 11:23:26;;;;;;;5.90;2.20;;;24.50;55.60;;;;;;5085642;28;20040;-85
2021/06/18 11:26:10;;;;;;;3.95;2.53;;;24.50;55.40;;;;;;5068323;28;20522;-86
2021/06/18 11:28:52;;;;;;;5.07;2.47;;;24.50;55.50;;;;;;5068288;28;20506;-82
2021/06/18 11:31:38;;;;;;;4.75;2.45;;;24.60;55.50;;;;;;5086204;28;20080;-86
2021/06/18 11:34:04;;;;;;;2.58;1.60;;;24.70;55.40;;;;;;5088219;28;20031;-84
2021/06/18 11:36:35;;;;;;;4.78;1.98;;;24.80;55.40;;;;;;5070433;28;20115;-84
2021/06/18 11:39:07;;;;;;;4.72;2.05;;;24.90;55.40;;;;;;5069563;28;20472;-82
2021/06/18 11:41:39;;;;;;;3.13;1.40;;;24.90;55.10;;;;;;5069519;28;20083;-87
2021/06/18 11:44:06;;;;;;;3.58;2.22;;;25.00;55.00;;;;;;5069813;28;20082;-85
2021/06/18 11:46:33;;;;;;;2.90;1.52;;;25.10;55.00;;;;;;5068585;28;20135;-88
2021/06/18 11:49:09;;;;;;;4.90;1.50;;;25.10;54.90;;;;;;5098353;28;20053;-85
2021/06/18 11:51:35;;;;;;;7.78;2.25;;;25.20;54.90;;;;;;5089720;28;20069;-89
2021/06/18 11:54:01;;;;;;;4.10;1.80;;;25.20;54.70;;;;;;5091118;28;20061;-85
2021/06/18 11:56:33;;;;;;;4.20;1.90;;;25.30;54.60;;;;;;5091097;28;20031;-86
2021/06/18 11:58:59;;;;;;;7.07;1.80;;;25.40;54.70;;;;;;5090399;28;20475;-84
2021/06/18 12:01:31;;;;;;;2.78;1.77;;;25.50;54.50;;;;;;5076471;28;20258;-83
2021/06/18 12:03:59;;;;;;;3.83;2.05;;;25.50;54.40;;;;;;5070776;28;20199;-82
2021/06/18 12:06:30;;;;;;;6.05;1.90;;;25.60;54.40;;;;;;5071374;28;20033;-84
2021/06/18 12:09:19;;;;;;;3.55;1.83;;;25.70;54.40;;;;;;5069039;28;20016;-84
2021/06/18 12:11:53;;;;;;;3.35;1.40;;;25.80;54.30;;;;;;5067160;28;20375;-84
2021/06/18 12:14:19;;;;;;;;;;;25.80;54.10;;;;;;5068869;28;20088;-84
2021/06/18 12:16:48;;;;;;;4.43;2.15;;;25.80;54.80;;;;;;5075065;28;19908;-83
2021/06/18 12:19:20;;;;;;;7.18;2.03;;;25.90;53.90;;;;;;5065712;28;20036;-83
2021/06/18 12:22:09;;;;;;;4.22;1.75;;;25.90;53.90;;;;;;5050803;28;20040;-83
2021/06/18 12:25:03;;;;;;;3.47;1.70;;;25.90;53.70;;;;;;5064281;28;20028;-83
2021/06/18 12:27:33;;;;;;;2.03;1.73;;;25.90;53.80;;;;;;5035362;28;20089;-83
2021/06/18 12:30:09;;;;;;;4.63;2.00;;;25.90;53.70;;;;;;5065252;28;20036;-85
2021/06/18 12:32:38;;;;;;;5.45;1.98;;;25.90;53.60;;;;;;5067015;28;20028;-86
2021/06/18 12:35:20;;;;;;;3.60;1.65;;;25.90;53.40;;;;;;5036778;28;20042;-85
2021/06/18 12:37:52;;;;;;;2.05;1.38;;;26.00;53.40;;;;;;5066974;28;20036;-82
2021/06/18 12:40:28;;;;;;;6.40;1.60;;;26.00;53.40;;;;;;5067754;28;20035;-84
2021/06/18 12:43:10;;;;;;;2.60;1.50;;;26.00;53.60;;;;;;5050938;28;20045;-84
2021/06/18 12:45:56;;;;;;;3.33;1.63;;;26.00;53.50;;;;;;5065608;28;20039;-81
2021/06/18 12:48:31;;;;;;;2.80;1.70;;;26.00;53.40;;;;;;5048101;28;20052;-85
2021/06/18 12:50:59;;;;;;;3.03;1.40;;;26.00;53.30;;;;;;5065578;28;20064;-86
2021/06/18 12:53:36;;;;;;;4.30;1.80;;;26.00;53.30;;;;;;5071990;28;20059;-87
2021/06/18 12:56:17;;;;;;;2.65;1.42;;;26.00;53.00;;;;;;5066340;28;20554;-86
2021/06/18 12:58:45;;;;;;;2.78;1.50;;;26.00;53.00;;;;;;5069598;28;20111;-85
2021/06/18 13:01:14;;;;;;;2.95;1.83;;;26.10;53.10;;;;;;5071069;28;20120;-85
2021/06/18 13:03:46;;;;;;;4.10;2.00;;;26.10;53.00;;;;;;5086111;28;20403;-85